sensor_id;sensor_type;location;lat;lon;timestamp;P1;durP1;ratioP1;P2;durP2;ratioP2
19262;SDS011;9765;52.354;20.884;2023-05-07T04:21:00;2.53;;;1.50;;
19262;SDS011;9765;52.354;20.884;2023-05-07T04:23:27;2.20;;;1.60;;
19262;SDS011;9765;52.354;20.884;2023-05-07T04:25:53;2.60;;;1.87;;
19262;SDS011;9765;52.354;20.884;2023-05-07T04:28:21;1.90;;;1.50;;
19262;SDS011;9765;52.354;20.884;2023-05-07T04:30:47;2.90;;;1.63;;
19262;SDS011;9765;52.354;20.884;2023-05-07T04:33:14;2.37;;;1.40;;
19262;SDS011;9765;52.354;20.884;2023-05-07T04:35:42;2.27;;;1.70;;
19262;SDS011;9765;52.354;20.884;2023-05-07T04:38:13;2.60;;;1.93;;
19262;SDS011;9765;52.354;20.884;2023-05-07T04:40:41;2.40;;;1.60;;
19262;SDS011;9765;52.354;20.884;2023-05-07T04:43:08;3.07;;;1.80;;
19262;SDS011;9765;52.354;20.884;2023-05-07T04:45:35;2.10;;;1.60;;
19262;SDS011;9765;52.354;20.884;2023-05-07T04:48:03;2.33;;;1.80;;
19262;SDS011;9765;52.354;20.884;2023-05-07T04:50:30;3.87;;;1.80;;
19262;SDS011;9765;52.354;20.884;2023-05-07T04:53:00;2.70;;;1.80;;
19262;SDS011;9765;52.354;20.884;2023-05-07T04:55:29;2.80;;;1.90;;
19262;SDS011;9765;52.354;20.884;2023-05-07T04:58:03;4.00;;;1.80;;
19262;SDS011;9765;52.354;20.884;2023-05-07T05:00:31;3.47;;;2.37;;
19262;SDS011;9765;52.354;20.884;2023-05-07T05:02:58;5.70;;;2.60;;
19262;SDS011;9765;52.354;20.884;2023-05-07T05:05:25;4.03;;;2.20;;
19262;SDS011;9765;52.354;20.884;2023-05-07T05:07:53;8.23;;;4.20;;
19262;SDS011;9765;52.354;20.884;2023-05-07T05:10:22;5.03;;;2.10;;
19262;SDS011;9765;52.354;20.884;2023-05-07T05:12:54;3.50;;;2.23;;
19262;SDS011;9765;52.354;20.884;2023-05-07T05:15:21;5.10;;;1.93;;
19262;SDS011;9765;52.354;20.884;2023-05-07T05:17:48;3.93;;;1.80;;
19262;SDS011;9765;52.354;20.884;2023-05-07T05:20:14;2.57;;;1.73;;
19262;SDS011;9765;52.354;20.884;2023-05-07T05:22:41;3.57;;;2.23;;
19262;SDS011;9765;52.354;20.884;2023-05-07T05:25:10;6.00;;;2.80;;
19262;SDS011;9765;52.354;20.884;2023-05-07T05:27:39;7.17;;;3.27;;
19262;SDS011;9765;52.354;20.884;2023-05-07T05:30:07;5.00;;;2.43;;
19262;SDS011;9765;52.354;20.884;2023-05-07T05:32:37;5.73;;;2.40;;
19262;SDS011;9765;52.354;20.884;2023-05-07T05:35:04;8.47;;;2.70;;
19262;SDS011;9765;52.354;20.884;2023-05-07T05:37:32;3.60;;;2.10;;
19262;SDS011;9765;52.354;20.884;2023-05-07T05:39:58;4.10;;;2.40;;
19262;SDS011;9765;52.354;20.884;2023-05-07T05:42:29;3.23;;;2.13;;
19262;SDS011;9765;52.354;20.884;2023-05-07T05:44:58;6.30;;;2.40;;
19262;SDS011;9765;52.354;20.884;2023-05-07T05:47:26;5.37;;;2.50;;
19262;SDS011;9765;52.354;20.884;2023-05-07T05:49:58;4.87;;;2.30;;
19262;SDS011;9765;52.354;20.884;2023-05-07T05:52:25;3.07;;;2.00;;
19262;SDS011;9765;52.354;20.884;2023-05-07T05:54:51;3.13;;;2.20;;
19262;SDS011;9765;52.354;20.884;2023-05-07T05:57:19;3.33;;;2.00;;
19262;SDS011;9765;52.354;20.884;2023-05-07T05:59:46;7.30;;;2.10;;
19262;SDS011;9765;52.354;20.884;2023-05-07T06:02:13;5.47;;;2.37;;
19262;SDS011;9765;52.354;20.884;2023-05-07T06:04:41;9.80;;;2.83;;
19262;SDS011;9765;52.354;20.884;2023-05-07T06:07:08;4.83;;;2.40;;
19262;SDS011;9765;52.354;20.884;2023-05-07T06:09:35;6.17;;;2.30;;
19262;SDS011;9765;52.354;20.884;2023-05-07T06:12:05;3.53;;;2.37;;
19262;SDS011;9765;52.354;20.884;2023-05-07T06:14:33;5.90;;;2.53;;
19262;SDS011;9765;52.354;20.884;2023-05-07T06:17:06;5.60;;;2.37;;
19262;SDS011;9765;52.354;20.884;2023-05-07T06:19:33;8.20;;;4.20;;
19262;SDS011;9765;52.354;20.884;2023-05-07T06:22:04;5.03;;;2.70;;
19262;SDS011;9765;52.354;20.884;2023-05-07T06:24:30;4.47;;;2.40;;
19262;SDS011;9765;52.354;20.884;2023-05-07T06:26:57;4.10;;;2.30;;
19262;SDS011;9765;52.354;20.884;2023-05-07T06:29:24;6.43;;;2.87;;
19262;SDS011;9765;52.354;20.884;2023-05-07T06:31:51;5.63;;;2.30;;
19262;SDS011;9765;52.354;20.884;2023-05-07T06:34:18;3.20;;;2.30;;
19262;SDS011;9765;52.354;20.884;2023-05-07T06:36:45;9.63;;;2.83;;
19262;SDS011;9765;52.354;20.884;2023-05-07T06:39:13;4.90;;;2.70;;
19262;SDS011;9765;52.354;20.884;2023-05-07T06:41:39;4.30;;;2.60;;
19262;SDS011;9765;52.354;20.884;2023-05-07T06:44:07;4.90;;;2.90;;
19262;SDS011;9765;52.354;20.884;2023-05-07T06:46:34;3.50;;;2.10;;
19262;SDS011;9765;52.354;20.884;2023-05-07T06:49:01;5.07;;;2.80;;
19262;SDS011;9765;52.354;20.884;2023-05-07T06:51:30;6.53;;;3.03;;
19262;SDS011;9765;52.354;20.884;2023-05-07T06:53:56;11.33;;;3.53;;
19262;SDS011;9765;52.354;20.884;2023-05-07T06:56:24;5.30;;;2.90;;
19262;SDS011;9765;52.354;20.884;2023-05-07T06:58:51;4.47;;;2.30;;
19262;SDS011;9765;52.354;20.884;2023-05-07T07:01:18;4.23;;;2.63;;
19262;SDS011;9765;52.354;20.884;2023-05-07T07:03:45;5.27;;;2.40;;
19262;SDS011;9765;52.354;20.884;2023-05-07T07:06:13;3.37;;;2.23;;
19262;SDS011;9765;52.354;20.884;2023-05-07T07:08:40;5.10;;;2.70;;
19262;SDS011;9765;52.354;20.884;2023-05-07T07:11:07;5.63;;;2.50;;
19262;SDS011;9765;52.354;20.884;2023-05-07T07:13:36;4.20;;;2.77;;
19262;SDS011;9765;52.354;20.884;2023-05-07T07:16:03;7.37;;;3.00;;
19262;SDS011;9765;52.354;20.884;2023-05-07T07:18:33;10.63;;;3.03;;
19262;SDS011;9765;52.354;20.884;2023-05-07T07:21:00;4.87;;;2.70;;
19262;SDS011;9765;52.354;20.884;2023-05-07T07:23:27;4.10;;;2.50;;
19262;SDS011;9765;52.354;20.884;2023-05-07T07:25:54;6.13;;;2.60;;
19262;SDS011;9765;52.354;20.884;2023-05-07T07:28:21;3.87;;;2.40;;
19262;SDS011;9765;52.354;20.884;2023-05-07T07:30:53;5.87;;;2.67;;
19262;SDS011;9765;52.354;20.884;2023-05-07T07:33:20;4.90;;;2.57;;
19262;SDS011;9765;52.354;20.884;2023-05-07T07:35:55;4.23;;;2.17;;
19262;SDS011;9765;52.354;20.884;2023-05-07T07:38:22;3.20;;;2.30;;
19262;SDS011;9765;52.354;20.884;2023-05-07T07:40:49;4.50;;;2.20;;
19262;SDS011;9765;52.354;20.884;2023-05-07T07:43:15;4.00;;;2.50;;
19262;SDS011;9765;52.354;20.884;2023-05-07T07:45:47;3.67;;;2.40;;
19262;SDS011;9765;52.354;20.884;2023-05-07T07:48:17;3.87;;;2.30;;
19262;SDS011;9765;52.354;20.884;2023-05-07T07:50:50;3.97;;;2.17;;
19262;SDS011;9765;52.354;20.884;2023-05-07T07:53:19;3.73;;;2.10;;
19262;SDS011;9765;52.354;20.884;2023-05-07T07:55:46;3.97;;;2.20;;
19262;SDS011;9765;52.354;20.884;2023-05-07T07:58:12;2.87;;;1.93;;
19262;SDS011;9765;52.354;20.884;2023-05-07T08:00:39;4.00;;;2.30;;
19262;SDS011;9765;52.354;20.884;2023-05-07T08:03:09;4.03;;;2.50;;
19262;SDS011;9765;52.354;20.884;2023-05-07T08:05:37;4.87;;;2.60;;
19262;SDS011;9765;52.354;20.884;2023-05-07T08:08:04;3.70;;;2.27;;
19262;SDS011;9765;52.354;20.884;2023-05-07T08:10:31;6.17;;;2.27;;
19262;SDS011;9765;52.354;20.884;2023-05-07T08:13:00;3.93;;;2.10;;
19262;SDS011;9765;52.354;20.884;2023-05-07T08:15:28;3.27;;;2.13;;
19262;SDS011;9765;52.354;20.884;2023-05-07T08:17:55;3.47;;;2.10;;
19262;SDS011;9765;52.354;20.884;2023-05-07T08:20:22;4.23;;;2.13;;
19262;SDS011;9765;52.354;20.884;2023-05-07T08:22:51;6.30;;;1.97;;
19262;SDS011;9765;52.354;20.884;2023-05-07T08:25:18;3.33;;;2.00;;
19262;SDS011;9765;52.354;20.884;2023-05-07T08:27:55;5.80;;;2.20;;
19262;SDS011;9765;52.354;20.884;2023-05-07T08:30:22;3.60;;;2.00;;
19262;SDS011;9765;52.354;20.884;2023-05-07T08:32:49;3.87;;;2.10;;
19262;SDS011;9765;52.354;20.884;2023-05-07T08:35:15;4.70;;;2.33;;
19262;SDS011;9765;52.354;20.884;2023-05-07T08:37:42;3.83;;;2.23;;
19262;SDS011;9765;52.354;20.884;2023-05-07T08:40:11;3.37;;;2.07;;
19262;SDS011;9765;52.354;20.884;2023-05-07T08:42:38;3.50;;;1.90;;
19262;SDS011;9765;52.354;20.884;2023-05-07T08:45:10;2.40;;;1.90;;
19262;SDS011;9765;52.354;20.884;2023-05-07T08:47:40;5.23;;;2.07;;
19262;SDS011;9765;52.354;20.884;2023-05-07T08:50:12;3.67;;;1.87;;
19262;SDS011;9765;52.354;20.884;2023-05-07T08:52:40;7.43;;;2.10;;
19262;SDS011;9765;52.354;20.884;2023-05-07T08:55:12;12.70;;;2.10;;
19262;SDS011;9765;52.354;20.884;2023-05-07T08:57:39;4.17;;;2.40;;
19262;SDS011;9765;52.354;20.884;2023-05-07T09:00:06;3.60;;;2.10;;
19262;SDS011;9765;52.354;20.884;2023-05-07T09:02:34;4.07;;;1.90;;
19262;SDS011;9765;52.354;20.884;2023-05-07T09:05:01;6.17;;;2.07;;
19262;SDS011;9765;52.354;20.884;2023-05-07T09:07:30;3.43;;;1.87;;
19262;SDS011;9765;52.354;20.884;2023-05-07T09:10:00;5.90;;;2.27;;
19262;SDS011;9765;52.354;20.884;2023-05-07T09:12:31;9.13;;;2.00;;
19262;SDS011;9765;52.354;20.884;2023-05-07T09:15:08;3.03;;;1.70;;
19262;SDS011;9765;52.354;20.884;2023-05-07T09:17:35;4.03;;;1.90;;
19262;SDS011;9765;52.354;20.884;2023-05-07T09:20:02;4.07;;;2.17;;
19262;SDS011;9765;52.354;20.884;2023-05-07T09:22:32;4.73;;;2.17;;
19262;SDS011;9765;52.354;20.884;2023-05-07T09:25:02;7.03;;;2.00;;
19262;SDS011;9765;52.354;20.884;2023-05-07T09:27:34;3.77;;;1.80;;
19262;SDS011;9765;52.354;20.884;2023-05-07T09:30:02;4.53;;;1.80;;
19262;SDS011;9765;52.354;20.884;2023-05-07T09:32:33;5.20;;;1.90;;
19262;SDS011;9765;52.354;20.884;2023-05-07T09:35:01;4.33;;;2.00;;
19262;SDS011;9765;52.354;20.884;2023-05-07T09:37:28;5.60;;;1.93;;
19262;SDS011;9765;52.354;20.884;2023-05-07T09:39:56;4.13;;;1.97;;
19262;SDS011;9765;52.354;20.884;2023-05-07T09:42:28;4.80;;;1.90;;
19262;SDS011;9765;52.354;20.884;2023-05-07T09:44:56;3.13;;;1.60;;
19262;SDS011;9765;52.354;20.884;2023-05-07T09:47:25;5.70;;;1.90;;
19262;SDS011;9765;52.354;20.884;2023-05-07T09:49:58;3.93;;;1.83;;
19262;SDS011;9765;52.354;20.884;2023-05-07T09:52:30;3.67;;;2.10;;
19262;SDS011;9765;52.354;20.884;2023-05-07T09:55:00;4.23;;;1.80;;
19262;SDS011;9765;52.354;20.884;2023-05-07T09:57:31;5.73;;;2.13;;
19262;SDS011;9765;52.354;20.884;2023-05-07T10:00:01;6.50;;;2.10;;
19262;SDS011;9765;52.354;20.884;2023-05-07T10:02:32;3.37;;;1.90;;
19262;SDS011;9765;52.354;20.884;2023-05-07T10:05:04;3.13;;;1.70;;
19262;SDS011;9765;52.354;20.884;2023-05-07T10:07:34;3.70;;;1.93;;
19262;SDS011;9765;52.354;20.884;2023-05-07T10:10:03;3.67;;;2.10;;
19262;SDS011;9765;52.354;20.884;2023-05-07T10:12:31;2.57;;;1.80;;
19262;SDS011;9765;52.354;20.884;2023-05-07T10:15:05;3.67;;;2.20;;
19262;SDS011;9765;52.354;20.884;2023-05-07T10:17:33;2.27;;;1.50;;
19262;SDS011;9765;52.354;20.884;2023-05-07T10:20:04;5.07;;;1.90;;
19262;SDS011;9765;52.354;20.884;2023-05-07T10:22:33;5.33;;;1.87;;
19262;SDS011;9765;52.354;20.884;2023-05-07T10:25:05;4.30;;;2.00;;
19262;SDS011;9765;52.354;20.884;2023-05-07T10:27:36;4.47;;;1.80;;
19262;SDS011;9765;52.354;20.884;2023-05-07T10:30:07;2.47;;;1.60;;
19262;SDS011;9765;52.354;20.884;2023-05-07T10:32:43;3.73;;;1.83;;
19262;SDS011;9765;52.354;20.884;2023-05-07T10:35:16;6.53;;;1.83;;
19262;SDS011;9765;52.354;20.884;2023-05-07T10:37:51;3.83;;;1.93;;
19262;SDS011;9765;52.354;20.884;2023-05-07T10:40:19;5.53;;;2.03;;
19262;SDS011;9765;52.354;20.884;2023-05-07T10:42:55;3.47;;;1.77;;
19262;SDS011;9765;52.354;20.884;2023-05-07T10:45:26;4.77;;;1.83;;
19262;SDS011;9765;52.354;20.884;2023-05-07T10:50:40;3.03;;;1.47;;
19262;SDS011;9765;52.354;20.884;2023-05-07T10:53:22;5.57;;;1.90;;
19262;SDS011;9765;52.354;20.884;2023-05-07T11:02:01;3.80;;;1.63;;
19262;SDS011;9765;52.354;20.884;2023-05-07T11:04:29;3.33;;;1.57;;
19262;SDS011;9765;52.354;20.884;2023-05-07T11:09:57;3.00;;;1.80;;
19262;SDS011;9765;52.354;20.884;2023-05-07T11:12:48;3.90;;;1.53;;
19262;SDS011;9765;52.354;20.884;2023-05-07T11:18:09;5.50;;;1.87;;
19262;SDS011;9765;52.354;20.884;2023-05-07T11:20:54;2.13;;;1.60;;
19262;SDS011;9765;52.354;20.884;2023-05-07T11:26:23;4.23;;;1.90;;
19262;SDS011;9765;52.354;20.884;2023-05-07T11:28:51;3.23;;;1.80;;
19262;SDS011;9765;52.354;20.884;2023-05-07T11:31:27;2.97;;;1.70;;
19262;SDS011;9765;52.354;20.884;2023-05-07T11:33:56;3.83;;;1.73;;
19262;SDS011;9765;52.354;20.884;2023-05-07T11:36:24;3.50;;;1.97;;
19262;SDS011;9765;52.354;20.884;2023-05-07T11:38:51;5.47;;;1.97;;
19262;SDS011;9765;52.354;20.884;2023-05-07T11:41:20;7.27;;;1.93;;
19262;SDS011;9765;52.354;20.884;2023-05-07T11:43:54;7.43;;;2.50;;
19262;SDS011;9765;52.354;20.884;2023-05-07T11:46:25;7.80;;;2.63;;
19262;SDS011;9765;52.354;20.884;2023-05-07T11:48:52;5.20;;;2.03;;
19262;SDS011;9765;52.354;20.884;2023-05-07T11:51:21;4.27;;;1.63;;
19262;SDS011;9765;52.354;20.884;2023-05-07T11:53:54;6.67;;;2.40;;
19262;SDS011;9765;52.354;20.884;2023-05-07T11:56:23;6.60;;;2.00;;
19262;SDS011;9765;52.354;20.884;2023-05-07T11:58:50;3.77;;;2.30;;
19262;SDS011;9765;52.354;20.884;2023-05-07T12:01:22;5.13;;;1.80;;
19262;SDS011;9765;52.354;20.884;2023-05-07T12:03:48;2.40;;;1.63;;
19262;SDS011;9765;52.354;20.884;2023-05-07T12:06:15;3.87;;;1.97;;
19262;SDS011;9765;52.354;20.884;2023-05-07T12:08:44;3.73;;;1.43;;
19262;SDS011;9765;52.354;20.884;2023-05-07T12:11:14;5.37;;;1.60;;
19262;SDS011;9765;52.354;20.884;2023-05-07T12:13:48;3.83;;;1.90;;
19262;SDS011;9765;52.354;20.884;2023-05-07T12:16:20;4.17;;;1.60;;
19262;SDS011;9765;52.354;20.884;2023-05-07T12:18:47;4.37;;;2.10;;
19262;SDS011;9765;52.354;20.884;2023-05-07T12:21:14;3.77;;;1.70;;
19262;SDS011;9765;52.354;20.884;2023-05-07T12:23:46;3.83;;;1.70;;
19262;SDS011;9765;52.354;20.884;2023-05-07T12:26:13;2.63;;;1.50;;
19262;SDS011;9765;52.354;20.884;2023-05-07T12:28:44;4.03;;;1.60;;
19262;SDS011;9765;52.354;20.884;2023-05-07T12:31:14;2.90;;;1.77;;
19262;SDS011;9765;52.354;20.884;2023-05-07T12:33:44;4.37;;;2.37;;
19262;SDS011;9765;52.354;20.884;2023-05-07T12:36:14;3.27;;;1.70;;
19262;SDS011;9765;52.354;20.884;2023-05-07T12:38:41;9.93;;;2.10;;
19262;SDS011;9765;52.354;20.884;2023-05-07T12:41:09;5.47;;;1.50;;
19262;SDS011;9765;52.354;20.884;2023-05-07T12:43:40;4.37;;;1.80;;
19262;SDS011;9765;52.354;20.884;2023-05-07T12:46:12;2.90;;;1.40;;
19262;SDS011;9765;52.354;20.884;2023-05-07T12:48:43;7.97;;;1.80;;
19262;SDS011;9765;52.354;20.884;2023-05-07T12:51:13;4.10;;;1.80;;
19262;SDS011;9765;52.354;20.884;2023-05-07T12:53:42;2.97;;;1.67;;
19262;SDS011;9765;52.354;20.884;2023-05-07T12:56:10;8.57;;;2.20;;
19262;SDS011;9765;52.354;20.884;2023-05-07T12:58:42;3.13;;;1.80;;
19262;SDS011;9765;52.354;20.884;2023-05-07T13:01:08;2.70;;;1.70;;
19262;SDS011;9765;52.354;20.884;2023-05-07T13:03:40;2.73;;;1.73;;
19262;SDS011;9765;52.354;20.884;2023-05-07T13:06:07;5.43;;;1.47;;
19262;SDS011;9765;52.354;20.884;2023-05-07T13:08:37;4.40;;;1.60;;
19262;SDS011;9765;52.354;20.884;2023-05-07T13:11:07;6.23;;;2.00;;
19262;SDS011;9765;52.354;20.884;2023-05-07T13:13:36;4.37;;;1.47;;
19262;SDS011;9765;52.354;20.884;2023-05-07T13:16:05;2.33;;;1.60;;
19262;SDS011;9765;52.354;20.884;2023-05-07T13:18:38;6.07;;;1.90;;
19262;SDS011;9765;52.354;20.884;2023-05-07T13:21:10;2.43;;;1.40;;
19262;SDS011;9765;52.354;20.884;2023-05-07T13:23:38;3.77;;;1.50;;
19262;SDS011;9765;52.354;20.884;2023-05-07T13:26:05;3.30;;;1.43;;
19262;SDS011;9765;52.354;20.884;2023-05-07T13:28:33;4.30;;;1.73;;
19262;SDS011;9765;52.354;20.884;2023-05-07T13:31:04;6.70;;;1.80;;
19262;SDS011;9765;52.354;20.884;2023-05-07T13:33:31;5.30;;;1.30;;
19262;SDS011;9765;52.354;20.884;2023-05-07T13:36:00;2.27;;;1.60;;
19262;SDS011;9765;52.354;20.884;2023-05-07T13:38:29;2.80;;;1.70;;
19262;SDS011;9765;52.354;20.884;2023-05-07T13:40:55;2.93;;;1.40;;
19262;SDS011;9765;52.354;20.884;2023-05-07T13:43:22;2.60;;;1.37;;
19262;SDS011;9765;52.354;20.884;2023-05-07T13:45:49;3.80;;;1.50;;
19262;SDS011;9765;52.354;20.884;2023-05-07T13:48:21;5.83;;;1.50;;
19262;SDS011;9765;52.354;20.884;2023-05-07T13:50:50;2.43;;;1.50;;
19262;SDS011;9765;52.354;20.884;2023-05-07T13:53:17;5.87;;;1.87;;
19262;SDS011;9765;52.354;20.884;2023-05-07T13:55:46;4.97;;;2.13;;
19262;SDS011;9765;52.354;20.884;2023-05-07T13:58:16;2.23;;;1.43;;
19262;SDS011;9765;52.354;20.884;2023-05-07T14:00:42;4.23;;;1.60;;
19262;SDS011;9765;52.354;20.884;2023-05-07T14:03:09;8.57;;;1.63;;
19262;SDS011;9765;52.354;20.884;2023-05-07T14:05:37;5.67;;;1.50;;
19262;SDS011;9765;52.354;20.884;2023-05-07T14:08:04;4.23;;;1.60;;
19262;SDS011;9765;52.354;20.884;2023-05-07T14:10:32;2.17;;;1.40;;
19262;SDS011;9765;52.354;20.884;2023-05-07T14:13:00;5.17;;;1.70;;
19262;SDS011;9765;52.354;20.884;2023-05-07T14:15:29;4.13;;;1.47;;
19262;SDS011;9765;52.354;20.884;2023-05-07T14:17:57;6.10;;;1.70;;
19262;SDS011;9765;52.354;20.884;2023-05-07T14:20:26;3.90;;;1.80;;
19262;SDS011;9765;52.354;20.884;2023-05-07T14:22:54;3.70;;;1.50;;
19262;SDS011;9765;52.354;20.884;2023-05-07T14:25:23;3.53;;;1.57;;
19262;SDS011;9765;52.354;20.884;2023-05-07T14:27:50;3.50;;;1.50;;
19262;SDS011;9765;52.354;20.884;2023-05-07T14:30:19;2.77;;;1.40;;
19262;SDS011;9765;52.354;20.884;2023-05-07T14:32:50;3.50;;;1.37;;
19262;SDS011;9765;52.354;20.884;2023-05-07T14:35:18;3.93;;;1.53;;
19262;SDS011;9765;52.354;20.884;2023-05-07T14:37:45;6.17;;;1.67;;
19262;SDS011;9765;52.354;20.884;2023-05-07T14:40:13;4.23;;;1.60;;
19262;SDS011;9765;52.354;20.884;2023-05-07T14:42:40;2.73;;;1.60;;
19262;SDS011;9765;52.354;20.884;2023-05-07T14:45:07;5.23;;;1.70;;
19262;SDS011;9765;52.354;20.884;2023-05-07T14:47:35;3.13;;;1.70;;
19262;SDS011;9765;52.354;20.884;2023-05-07T14:50:04;6.83;;;1.50;;
19262;SDS011;9765;52.354;20.884;2023-05-07T14:52:34;2.53;;;1.40;;
19262;SDS011;9765;52.354;20.884;2023-05-07T14:55:04;9.27;;;1.80;;
19262;SDS011;9765;52.354;20.884;2023-05-07T14:57:33;4.03;;;1.60;;
19262;SDS011;9765;52.354;20.884;2023-05-07T15:00:03;3.77;;;1.70;;
19262;SDS011;9765;52.354;20.884;2023-05-07T15:02:32;3.83;;;1.40;;
19262;SDS011;9765;52.354;20.884;2023-05-07T15:05:04;3.60;;;1.70;;
19262;SDS011;9765;52.354;20.884;2023-05-07T15:07:31;3.37;;;1.73;;
19262;SDS011;9765;52.354;20.884;2023-05-07T15:09:59;6.20;;;1.80;;
19262;SDS011;9765;52.354;20.884;2023-05-07T15:12:26;6.33;;;1.77;;
19262;SDS011;9765;52.354;20.884;2023-05-07T15:14:54;3.37;;;1.70;;
19262;SDS011;9765;52.354;20.884;2023-05-07T15:17:20;6.00;;;3.47;;
19262;SDS011;9765;52.354;20.884;2023-05-07T15:19:48;4.17;;;2.10;;
19262;SDS011;9765;52.354;20.884;2023-05-07T15:22:16;3.83;;;1.70;;
19262;SDS011;9765;52.354;20.884;2023-05-07T15:24:43;2.53;;;1.70;;
19262;SDS011;9765;52.354;20.884;2023-05-07T15:27:11;13.10;;;1.90;;
19262;SDS011;9765;52.354;20.884;2023-05-07T15:29:38;5.07;;;1.70;;
19262;SDS011;9765;52.354;20.884;2023-05-07T15:32:06;3.67;;;2.20;;
19262;SDS011;9765;52.354;20.884;2023-05-07T15:34:33;5.10;;;2.00;;
19262;SDS011;9765;52.354;20.884;2023-05-07T15:37:00;5.77;;;1.77;;
19262;SDS011;9765;52.354;20.884;2023-05-07T15:39:29;3.47;;;1.90;;
19262;SDS011;9765;52.354;20.884;2023-05-07T15:41:56;5.77;;;2.10;;
19262;SDS011;9765;52.354;20.884;2023-05-07T15:44:23;6.80;;;2.90;;
19262;SDS011;9765;52.354;20.884;2023-05-07T15:46:52;4.00;;;2.00;;
19262;SDS011;9765;52.354;20.884;2023-05-07T15:49:23;4.67;;;2.20;;
19262;SDS011;9765;52.354;20.884;2023-05-07T15:51:50;3.07;;;1.63;;
19262;SDS011;9765;52.354;20.884;2023-05-07T15:54:19;3.30;;;1.93;;
19262;SDS011;9765;52.354;20.884;2023-05-07T15:56:46;5.63;;;1.70;;
19262;SDS011;9765;52.354;20.884;2023-05-07T15:59:13;4.53;;;1.90;;
19262;SDS011;9765;52.354;20.884;2023-05-07T16:01:40;5.43;;;1.83;;
19262;SDS011;9765;52.354;20.884;2023-05-07T16:04:09;3.63;;;1.90;;
19262;SDS011;9765;52.354;20.884;2023-05-07T16:06:39;8.30;;;2.30;;
19262;SDS011;9765;52.354;20.884;2023-05-07T16:09:09;2.83;;;1.70;;
19262;SDS011;9765;52.354;20.884;2023-05-07T16:11:36;8.03;;;1.70;;
19262;SDS011;9765;52.354;20.884;2023-05-07T16:14:02;3.73;;;2.13;;
19262;SDS011;9765;52.354;20.884;2023-05-07T16:16:31;3.73;;;1.93;;
19262;SDS011;9765;52.354;20.884;2023-05-07T16:19:00;4.07;;;1.90;;
19262;SDS011;9765;52.354;20.884;2023-05-07T16:21:29;6.60;;;2.20;;
19262;SDS011;9765;52.354;20.884;2023-05-07T16:24:01;3.53;;;2.07;;
19262;SDS011;9765;52.354;20.884;2023-05-07T16:26:27;7.90;;;2.30;;
19262;SDS011;9765;52.354;20.884;2023-05-07T16:28:56;4.53;;;1.73;;
19262;SDS011;9765;52.354;20.884;2023-05-07T16:31:23;4.33;;;1.80;;
19262;SDS011;9765;52.354;20.884;2023-05-07T16:33:50;4.07;;;1.80;;
19262;SDS011;9765;52.354;20.884;2023-05-07T16:36:17;4.00;;;1.77;;
19262;SDS011;9765;52.354;20.884;2023-05-07T16:38:44;4.20;;;1.80;;
19262;SDS011;9765;52.354;20.884;2023-05-07T16:41:12;2.70;;;1.80;;
19262;SDS011;9765;52.354;20.884;2023-05-07T16:43:38;6.10;;;2.00;;
19262;SDS011;9765;52.354;20.884;2023-05-07T16:46:07;4.23;;;1.70;;
19262;SDS011;9765;52.354;20.884;2023-05-07T16:48:36;8.83;;;2.23;;
19262;SDS011;9765;52.354;20.884;2023-05-07T16:51:06;2.77;;;2.00;;
19262;SDS011;9765;52.354;20.884;2023-05-07T16:53:33;8.30;;;2.07;;
19262;SDS011;9765;52.354;20.884;2023-05-07T16:56:03;4.90;;;1.90;;
19262;SDS011;9765;52.354;20.884;2023-05-07T16:58:34;4.70;;;2.00;;
19262;SDS011;9765;52.354;20.884;2023-05-07T17:01:01;6.93;;;2.10;;
19262;SDS011;9765;52.354;20.884;2023-05-07T17:03:31;10.30;;;2.13;;
19262;SDS011;9765;52.354;20.884;2023-05-07T17:05:58;9.80;;;3.17;;
19262;SDS011;9765;52.354;20.884;2023-05-07T17:08:24;3.27;;;1.77;;
19262;SDS011;9765;52.354;20.884;2023-05-07T17:10:52;5.17;;;1.97;;
19262;SDS011;9765;52.354;20.884;2023-05-07T17:13:19;15.30;;;9.27;;
19262;SDS011;9765;52.354;20.884;2023-05-07T17:15:47;8.50;;;4.13;;
19262;SDS011;9765;52.354;20.884;2023-05-07T17:18:14;3.90;;;1.80;;
19262;SDS011;9765;52.354;20.884;2023-05-07T17:20:41;5.23;;;2.60;;
19262;SDS011;9765;52.354;20.884;2023-05-07T17:23:07;9.70;;;4.63;;
19262;SDS011;9765;52.354;20.884;2023-05-07T17:25:34;6.20;;;2.50;;
19262;SDS011;9765;52.354;20.884;2023-05-07T17:28:01;6.90;;;3.17;;
19262;SDS011;9765;52.354;20.884;2023-05-07T17:30:28;7.63;;;2.50;;
19262;SDS011;9765;52.354;20.884;2023-05-07T17:32:56;4.77;;;2.20;;
19262;SDS011;9765;52.354;20.884;2023-05-07T17:35:23;5.33;;;2.20;;
19262;SDS011;9765;52.354;20.884;2023-05-07T17:37:51;4.17;;;2.33;;
19262;SDS011;9765;52.354;20.884;2023-05-07T17:40:19;4.23;;;2.27;;
19262;SDS011;9765;52.354;20.884;2023-05-07T17:42:47;6.90;;;2.70;;
19262;SDS011;9765;52.354;20.884;2023-05-07T17:45:14;5.77;;;2.83;;
19262;SDS011;9765;52.354;20.884;2023-05-07T17:47:42;5.37;;;3.07;;
19262;SDS011;9765;52.354;20.884;2023-05-07T17:50:11;7.73;;;3.00;;
19262;SDS011;9765;52.354;20.884;2023-05-07T17:52:39;6.73;;;3.27;;
19262;SDS011;9765;52.354;20.884;2023-05-07T17:55:06;11.90;;;3.77;;
19262;SDS011;9765;52.354;20.884;2023-05-07T17:57:36;7.10;;;3.27;;
19262;SDS011;9765;52.354;20.884;2023-05-07T18:00:03;15.30;;;5.27;;
19262;SDS011;9765;52.354;20.884;2023-05-07T18:02:31;18.43;;;5.90;;
19262;SDS011;9765;52.354;20.884;2023-05-07T18:04:58;14.77;;;5.17;;
19262;SDS011;9765;52.354;20.884;2023-05-07T18:07:26;11.87;;;5.53;;
19262;SDS011;9765;52.354;20.884;2023-05-07T18:09:53;13.80;;;5.63;;
19262;SDS011;9765;52.354;20.884;2023-05-07T18:12:20;15.33;;;5.70;;
